createdAt,value
2023-02-19T00:00:58.216Z,53.75
2023-02-19T00:03:24.885Z,58.50
2023-02-19T00:05:51.396Z,49.40
2023-02-19T00:08:17.892Z,55.75
2023-02-19T00:10:44.356Z,56.50
2023-02-19T00:13:10.826Z,56.75
2023-02-19T00:15:37.513Z,53.60
2023-02-19T00:18:04.104Z,51.00
2023-02-19T00:20:30.564Z,51.25
2023-02-19T00:22:57.069Z,46.00
2023-02-19T00:25:23.655Z,45.75
2023-02-19T00:27:51.382Z,44.25
2023-02-19T00:30:17.884Z,43.20
2023-02-19T00:32:44.387Z,40.33
2023-02-19T00:35:10.882Z,38.75
2023-02-19T00:37:37.335Z,38.00
2023-02-19T00:40:03.808Z,36.25
2023-02-19T00:42:30.243Z,34.50
2023-02-19T00:44:56.735Z,40.50
2023-02-19T00:47:23.236Z,43.60
2023-02-19T00:49:49.746Z,44.50
2023-02-19T00:52:16.226Z,43.00
2023-02-19T00:54:42.951Z,40.00
2023-02-19T00:57:09.437Z,35.00
2023-02-19T00:59:36.892Z,34.50
2023-02-19T01:02:03.830Z,34.75
2023-02-19T01:04:30.319Z,36.00
2023-02-19T01:06:56.855Z,35.00
2023-02-19T01:09:23.351Z,35.25
2023-02-19T01:11:49.820Z,35.60
2023-02-19T01:14:16.332Z,35.00
2023-02-19T01:16:42.832Z,36.00
2023-02-19T01:19:09.271Z,36.00
2023-02-19T01:21:35.701Z,36.75
2023-02-19T01:24:02.187Z,36.00
2023-02-19T01:26:30.224Z,35.75
2023-02-19T01:28:56.998Z,37.25
2023-02-19T01:31:24.840Z,34.75
2023-02-19T01:33:53.321Z,35.50
2023-02-19T01:36:19.945Z,34.80
2023-02-19T01:38:46.760Z,35.20
2023-02-19T01:41:15.769Z,35.00
2023-02-19T01:44:01.111Z,34.75
2023-02-19T01:46:32.890Z,35.00
2023-02-19T01:49:01.387Z,35.00
2023-02-19T01:51:28.272Z,35.50
2023-02-19T01:53:58.425Z,36.00
2023-02-19T01:56:26.065Z,35.00
2023-02-19T01:58:52.846Z,35.40
2023-02-19T02:01:19.383Z,35.00
2023-02-19T02:03:48.829Z,34.75
2023-02-19T02:06:18.084Z,36.00
2023-02-19T02:09:03.096Z,35.75
2023-02-19T02:11:29.562Z,36.00
2023-02-19T02:13:56.929Z,34.33
2023-02-19T02:16:42.130Z,35.60
2023-02-19T02:19:20.706Z,36.00
2023-02-19T02:22:02.328Z,36.75
2023-02-19T02:24:38.018Z,36.00
2023-02-19T02:27:12.754Z,37.80
2023-02-19T02:29:39.250Z,40.25
2023-02-19T02:32:13.749Z,38.00
2023-02-19T02:34:46.395Z,39.50
2023-02-19T02:37:14.621Z,40.00
2023-02-19T02:39:42.016Z,40.25
2023-02-19T02:42:27.320Z,36.25
2023-02-19T02:45:16.521Z,38.20
2023-02-19T02:47:46.281Z,36.25
2023-02-19T02:50:21.834Z,38.00
2023-02-19T02:53:08.749Z,36.50
2023-02-19T02:55:39.048Z,38.25
2023-02-19T02:58:05.714Z,38.00
2023-02-19T03:00:58.113Z,36.00
2023-02-19T03:03:26.561Z,36.75
2023-02-19T03:05:56.510Z,36.00
2023-02-19T03:08:29.585Z,36.00
2023-02-19T03:11:21.505Z,36.00
2023-02-19T03:14:08.554Z,40.00
2023-02-19T03:16:55.437Z,42.00
2023-02-19T03:19:24.352Z,35.75
2023-02-19T03:22:00.863Z,36.00
2023-02-19T03:24:48.552Z,36.00
2023-02-19T03:27:15.825Z,37.50
2023-02-19T03:29:43.950Z,44.00
2023-02-19T03:32:29.931Z,45.50
2023-02-19T03:35:09.098Z,36.00
2023-02-19T03:37:47.152Z,34.50
2023-02-19T03:40:13.885Z,34.40
2023-02-19T03:42:40.443Z,35.00
2023-02-19T03:45:07.936Z,35.00
2023-02-19T03:47:43.835Z,36.00
2023-02-19T03:50:16.120Z,35.00
2023-02-19T03:52:53.748Z,34.00
2023-02-19T03:55:27.723Z,34.40
2023-02-19T03:57:57.744Z,34.00
2023-02-19T04:00:32.915Z,33.00
2023-02-19T04:03:02.133Z,34.00
2023-02-19T04:05:33.253Z,34.00
2023-02-19T04:08:03.112Z,33.40
2023-02-19T04:10:30.256Z,35.00
2023-02-19T04:13:02.716Z,34.00
2023-02-19T04:15:31.266Z,34.00
2023-02-19T04:18:00.747Z,33.75
2023-02-19T04:20:29.970Z,34.00
2023-02-19T04:22:57.371Z,34.00
2023-02-19T04:25:26.009Z,34.50
2023-02-19T04:27:52.895Z,34.80
2023-02-19T04:30:19.427Z,35.00
2023-02-19T04:32:45.959Z,34.25
2023-02-19T04:35:12.377Z,33.00
2023-02-19T04:37:38.834Z,33.60
2023-02-19T04:40:05.756Z,34.00
2023-02-19T04:42:32.200Z,34.00
2023-02-19T04:44:58.756Z,34.00
2023-02-19T04:47:25.255Z,33.60
2023-02-19T04:49:51.738Z,34.00
2023-02-19T04:52:18.272Z,32.00
2023-02-19T04:54:44.764Z,32.00
2023-02-19T04:57:11.228Z,33.00
2023-02-19T04:59:37.722Z,34.00
2023-02-19T05:02:04.185Z,31.33
2023-02-19T05:04:30.874Z,30.00
2023-02-19T05:06:57.488Z,32.00
2023-02-19T05:09:24.022Z,31.50
2023-02-19T05:11:50.580Z,31.60
2023-02-19T05:14:17.345Z,32.00
2023-02-19T05:16:43.826Z,32.50
2023-02-19T05:19:14.572Z,32.00
2023-02-19T05:21:41.105Z,32.00
2023-02-19T05:24:07.870Z,32.20
2023-02-19T05:26:34.774Z,32.60
2023-02-19T05:29:01.288Z,32.00
2023-02-19T05:31:27.921Z,31.00
2023-02-19T05:33:57.735Z,31.67
2023-02-19T05:36:24.425Z,30.25
2023-02-19T05:38:54.456Z,32.50
2023-02-19T05:41:23.246Z,32.00
2023-02-19T05:43:50.418Z,32.50
2023-02-19T05:46:18.095Z,33.00
2023-02-19T05:48:44.636Z,31.00
2023-02-19T05:51:12.575Z,31.75
2023-02-19T05:53:39.668Z,30.00
2023-02-19T05:56:21.460Z,32.00
2023-02-19T05:58:47.972Z,31.50
2023-02-19T06:01:16.802Z,31.00
2023-02-19T06:03:43.414Z,33.00
2023-02-19T06:06:11.305Z,33.60
2023-02-19T06:08:38.338Z,32.40
2023-02-19T06:11:05.859Z,33.00
2023-02-19T06:13:32.327Z,34.00
2023-02-19T06:15:58.877Z,38.25
2023-02-19T06:18:25.391Z,41.00
2023-02-19T06:20:51.831Z,38.00
2023-02-19T06:23:18.269Z,36.00
2023-02-19T06:25:44.692Z,35.00
2023-02-19T06:28:11.238Z,41.50
2023-02-19T06:30:37.722Z,55.75
2023-02-19T06:33:04.198Z,48.60
2023-02-19T06:35:30.686Z,36.25
2023-02-19T06:37:57.171Z,32.00
2023-02-19T06:40:23.671Z,34.00
2023-02-19T06:42:50.185Z,36.00
2023-02-19T06:45:16.629Z,35.00
2023-02-19T06:47:43.109Z,30.00
2023-02-19T06:50:09.641Z,29.00
2023-02-19T06:52:36.177Z,31.00
2023-02-19T06:55:02.718Z,30.75
2023-02-19T06:57:29.507Z,28.00
2023-02-19T06:59:56.005Z,29.00
2023-02-19T07:02:22.523Z,28.25
2023-02-19T07:04:50.428Z,29.50
2023-02-19T07:07:16.880Z,32.00
2023-02-19T07:09:45.668Z,26.25
2023-02-19T07:12:12.254Z,23.00
2023-02-19T07:14:38.736Z,23.75
2023-02-19T07:17:05.240Z,22.00
2023-02-19T07:19:31.728Z,21.50
2023-02-19T07:21:58.187Z,21.80
2023-02-19T07:24:24.722Z,20.75
2023-02-19T07:26:51.252Z,19.00
2023-02-19T07:29:17.800Z,18.50
2023-02-19T07:31:44.512Z,18.20
2023-02-19T07:34:10.994Z,16.00
2023-02-19T07:36:37.497Z,17.00
2023-02-19T07:39:04.269Z,16.80
2023-02-19T07:41:30.730Z,14.75
2023-02-19T07:43:57.221Z,14.00
2023-02-19T07:46:24.173Z,13.60
2023-02-19T07:48:50.893Z,14.80
2023-02-19T07:51:19.147Z,15.00
2023-02-19T07:53:46.414Z,14.40
2023-02-19T07:56:13.246Z,14.40
2023-02-19T07:58:40.161Z,14.00
2023-02-19T08:01:17.122Z,14.00
2023-02-19T08:03:43.970Z,14.00
2023-02-19T08:06:14.040Z,12.20
2023-02-19T08:08:40.545Z,12.00
2023-02-19T08:11:25.806Z,13.50
2023-02-19T08:13:53.099Z,14.00
2023-02-19T08:16:29.582Z,11.60
2023-02-19T08:18:56.508Z,11.75
2023-02-19T08:21:23.019Z,11.80
2023-02-19T08:23:51.173Z,17.00
2023-02-19T08:26:18.171Z,21.00
2023-02-19T08:28:44.702Z,13.75
2023-02-19T08:31:12.545Z,16.50
2023-02-19T08:33:39.831Z,11.20
2023-02-19T08:36:07.506Z,10.00
2023-02-19T08:38:35.980Z,11.50
2023-02-19T08:41:09.750Z,4.60
2023-02-19T08:43:36.645Z,12.00
2023-02-19T08:46:03.760Z,8.75
2023-02-19T08:48:30.313Z,6.20
2023-02-19T08:50:57.981Z,6.00
2023-02-19T08:53:24.990Z,5.20
2023-02-19T08:55:52.224Z,6.25
2023-02-19T08:58:18.833Z,7.00
2023-02-19T09:00:45.424Z,6.00
2023-02-19T09:03:11.883Z,6.00
2023-02-19T09:05:38.772Z,6.00
2023-02-19T09:08:05.205Z,6.00
2023-02-19T09:10:31.710Z,5.00
2023-02-19T09:12:58.213Z,5.80
2023-02-19T09:15:24.756Z,6.00
2023-02-19T09:17:53.974Z,4.40
2023-02-19T09:20:20.540Z,4.40
2023-02-19T09:22:47.019Z,3.80
2023-02-19T09:25:13.550Z,3.00
2023-02-19T09:27:39.984Z,6.50
2023-02-19T09:30:06.774Z,3.00
2023-02-19T09:32:34.609Z,5.00
2023-02-19T09:35:01.103Z,3.60
2023-02-19T09:37:28.083Z,4.00
2023-02-19T09:39:55.634Z,6.00
2023-02-19T09:42:29.335Z,4.00
2023-02-19T09:44:57.630Z,4.00
2023-02-19T09:47:25.656Z,3.40
2023-02-19T09:49:54.705Z,5.00
2023-02-19T09:52:29.179Z,5.00
2023-02-19T09:54:59.429Z,4.00
2023-02-19T09:57:28.020Z,4.75
2023-02-19T10:00:14.160Z,3.00
2023-02-19T10:02:40.631Z,3.20
2023-02-19T10:05:12.693Z,5.00
2023-02-19T10:07:40.386Z,4.40
2023-02-19T10:10:12.625Z,5.00
2023-02-19T10:12:41.331Z,6.00
2023-02-19T10:15:16.874Z,5.00
2023-02-19T10:17:43.314Z,5.00
2023-02-19T10:20:17.640Z,4.00
2023-02-19T10:22:44.162Z,5.00
2023-02-19T10:25:17.129Z,5.00
2023-02-19T10:27:44.088Z,5.00
2023-02-19T10:30:24.346Z,5.00
2023-02-19T10:33:10.712Z,5.40
2023-02-19T10:35:55.750Z,5.00
2023-02-19T10:38:26.095Z,5.00
2023-02-19T10:40:58.953Z,6.00
2023-02-19T10:43:35.462Z,5.00
2023-02-19T10:46:03.774Z,3.00
2023-02-19T10:48:33.092Z,4.00
2023-02-19T10:51:05.071Z,4.00
2023-02-19T10:53:39.781Z,3.40
2023-02-19T10:56:07.600Z,4.00
2023-02-19T10:58:37.993Z,4.00
2023-02-19T11:01:15.333Z,4.00
2023-02-19T11:03:42.021Z,5.00
2023-02-19T11:06:10.553Z,6.00
2023-02-19T11:08:49.097Z,3.75
2023-02-19T11:11:22.699Z,5.00
2023-02-19T11:13:49.185Z,4.50
2023-02-19T11:16:15.769Z,6.00
2023-02-19T11:18:47.465Z,2.20
2023-02-19T11:21:25.574Z,4.00
2023-02-19T11:23:52.124Z,4.00
2023-02-19T11:26:20.885Z,3.50
2023-02-19T11:28:55.249Z,5.00
2023-02-19T11:31:23.813Z,3.50
2023-02-19T11:34:00.884Z,3.00
2023-02-19T11:36:30.295Z,4.00
2023-02-19T11:38:58.011Z,4.00
2023-02-19T11:41:30.700Z,3.00
2023-02-19T11:44:03.346Z,5.00
2023-02-19T11:46:32.922Z,5.00
2023-02-19T11:49:21.395Z,5.00
2023-02-19T11:52:17.519Z,2.60
2023-02-19T11:54:48.801Z,4.00
2023-02-19T11:57:18.156Z,3.00
2023-02-19T12:00:04.969Z,2.20
2023-02-19T12:02:50.110Z,3.60
2023-02-19T12:05:23.364Z,3.00
2023-02-19T12:07:55.934Z,3.60
2023-02-19T12:10:25.538Z,3.00
2023-02-19T12:13:04.433Z,2.00
2023-02-19T12:15:30.928Z,2.00
2023-02-19T12:18:22.121Z,3.00
2023-02-19T12:20:57.380Z,3.00
2023-02-19T12:23:47.948Z,3.00
2023-02-19T12:26:33.063Z,2.00
2023-02-19T12:29:02.582Z,2.50
2023-02-19T12:31:37.904Z,3.00
2023-02-19T12:34:10.221Z,3.00
2023-02-19T12:36:36.735Z,2.80
2023-02-19T12:39:22.814Z,2.00
2023-02-19T12:41:53.481Z,4.00
2023-02-19T12:44:28.110Z,3.00
2023-02-19T12:46:59.380Z,3.60
2023-02-19T12:49:28.204Z,2.00
2023-02-19T12:52:03.497Z,3.20
2023-02-19T12:54:38.982Z,2.50
2023-02-19T12:57:11.554Z,3.40
2023-02-19T12:59:41.097Z,3.75
2023-02-19T13:02:24.349Z,2.50
2023-02-19T13:05:13.474Z,4.00
2023-02-19T13:07:55.395Z,3.00
2023-02-19T13:10:31.480Z,3.00
2023-02-19T13:13:00.317Z,3.60
2023-02-19T13:15:36.055Z,3.60
2023-02-19T13:18:03.878Z,3.33
2023-02-19T13:20:32.515Z,4.00
2023-02-19T13:23:20.628Z,2.25
2023-02-19T13:26:05.815Z,3.00
2023-02-19T13:28:50.812Z,4.00
2023-02-19T13:31:46.921Z,3.00
2023-02-19T13:34:20.544Z,3.00
2023-02-19T13:36:48.842Z,2.00
2023-02-19T13:41:49.086Z,3.00
2023-02-19T13:44:19.985Z,4.00
2023-02-19T13:46:47.881Z,4.00
2023-02-19T13:49:23.496Z,1.75
2023-02-19T13:51:51.525Z,2.50
2023-02-19T13:54:22.750Z,3.00
2023-02-19T13:56:49.585Z,3.00
2023-02-19T13:59:36.462Z,2.60
2023-02-19T14:02:02.899Z,3.75
2023-02-19T14:04:32.169Z,3.00
2023-02-19T14:07:04.718Z,3.00
2023-02-19T14:09:40.657Z,4.00
2023-02-19T14:12:15.450Z,3.00
2023-02-19T14:14:42.747Z,3.00
2023-02-19T14:17:09.298Z,4.00
2023-02-19T14:19:58.981Z,6.50
2023-02-19T14:22:44.142Z,1.00
2023-02-19T14:25:28.744Z,2.00
2023-02-19T14:28:18.662Z,2.33
2023-02-19T14:30:54.311Z,2.80
2023-02-19T14:33:29.017Z,3.00
2023-02-19T14:36:15.720Z,3.00
2023-02-19T14:38:46.503Z,2.00
2023-02-19T14:41:15.645Z,3.00
2023-02-19T14:43:42.453Z,2.00
2023-02-19T14:46:14.956Z,3.00
2023-02-19T14:48:46.537Z,3.00
2023-02-19T14:51:24.016Z,2.00
2023-02-19T14:53:51.224Z,1.25
2023-02-19T14:56:20.784Z,2.50
2023-02-19T14:59:05.078Z,2.75
2023-02-19T15:01:31.595Z,3.00
2023-02-19T15:03:58.152Z,4.00
2023-02-19T15:06:25.904Z,3.00
2023-02-19T15:08:53.526Z,3.60
2023-02-19T15:11:24.952Z,3.00
2023-02-19T15:13:53.947Z,3.20
2023-02-19T15:16:23.676Z,3.50
2023-02-19T15:18:52.693Z,2.00
2023-02-19T15:21:22.560Z,4.00
2023-02-19T15:23:49.235Z,3.00
2023-02-19T15:26:21.292Z,3.00
2023-02-19T15:28:56.341Z,2.00
2023-02-19T15:31:22.869Z,2.80
2023-02-19T15:33:50.417Z,4.00
2023-02-19T15:36:20.813Z,3.80
2023-02-19T15:38:52.270Z,3.00
2023-02-19T15:41:21.359Z,3.50
2023-02-19T15:43:51.259Z,3.60
2023-02-19T15:46:22.447Z,1.20
2023-02-19T15:48:51.772Z,3.00
2023-02-19T15:51:31.972Z,2.50
2023-02-19T15:54:04.094Z,3.80
2023-02-19T15:56:32.472Z,3.40
2023-02-19T15:59:02.760Z,4.00
2023-02-19T16:01:39.058Z,2.20
2023-02-19T16:04:11.926Z,3.40
2023-02-19T16:06:54.312Z,3.00
2023-02-19T16:09:21.989Z,2.00
2023-02-19T16:11:48.433Z,2.40
2023-02-19T16:14:26.897Z,3.00
2023-02-19T16:17:13.702Z,3.00
2023-02-19T16:19:43.542Z,3.00
2023-02-19T16:22:11.396Z,3.80
2023-02-19T16:24:42.103Z,4.00
2023-02-19T16:27:08.850Z,4.00
2023-02-19T16:29:35.324Z,3.00
2023-02-19T16:32:03.446Z,3.00
2023-02-19T16:34:34.798Z,3.60
2023-02-19T16:37:02.338Z,5.00
2023-02-19T16:39:28.897Z,1.00
2023-02-19T16:42:02.208Z,3.00
2023-02-19T16:44:28.844Z,2.00
2023-02-19T16:46:57.503Z,3.00
2023-02-19T16:49:24.334Z,2.20
2023-02-19T16:51:51.049Z,3.00
2023-02-19T16:54:17.541Z,2.75
2023-02-19T16:56:44.002Z,3.60
2023-02-19T16:59:10.540Z,3.00
2023-02-19T17:01:37.579Z,3.25
2023-02-19T17:04:06.422Z,4.00
2023-02-19T17:06:34.791Z,3.80
2023-02-19T17:09:01.231Z,4.00
2023-02-19T17:11:27.684Z,3.00
2023-02-19T17:13:54.150Z,5.75
2023-02-19T17:16:22.890Z,4.00
2023-02-19T17:18:50.130Z,5.00
2023-02-19T17:21:19.816Z,5.00
2023-02-19T17:23:46.328Z,6.00
2023-02-19T17:26:16.513Z,4.00
2023-02-19T17:28:42.953Z,6.75
2023-02-19T17:31:11.234Z,5.40
2023-02-19T17:33:38.474Z,7.00
2023-02-19T17:36:05.682Z,5.00
2023-02-19T17:38:32.165Z,5.00
2023-02-19T17:40:58.603Z,6.20
2023-02-19T17:43:25.566Z,5.00
2023-02-19T17:45:52.113Z,6.00
2023-02-19T17:48:19.809Z,7.00
2023-02-19T17:50:49.235Z,8.00
2023-02-19T17:53:15.849Z,8.00
2023-02-19T17:55:42.275Z,6.40
2023-02-19T17:58:08.701Z,6.00
2023-02-19T18:00:36.426Z,6.00
2023-02-19T18:03:03.667Z,7.60
2023-02-19T18:05:30.322Z,8.20
2023-02-19T18:07:56.827Z,6.60
2023-02-19T18:10:23.709Z,7.00
2023-02-19T18:12:50.174Z,8.00
2023-02-19T18:15:18.200Z,7.00
2023-02-19T18:17:44.761Z,8.00
2023-02-19T18:20:19.216Z,7.25
2023-02-19T18:22:45.733Z,8.00
2023-02-19T18:25:12.236Z,8.00
2023-02-19T18:27:39.108Z,5.60
2023-02-19T18:30:06.029Z,7.00
2023-02-19T18:32:32.575Z,8.00
2023-02-19T18:35:00.207Z,8.00
2023-02-19T18:37:27.569Z,7.00
2023-02-19T18:39:54.121Z,6.00
2023-02-19T18:42:21.456Z,6.25
2023-02-19T18:44:48.924Z,7.40
2023-02-19T18:47:16.106Z,7.00
2023-02-19T18:49:49.207Z,7.00
2023-02-19T18:52:16.847Z,8.00
2023-02-19T18:54:43.746Z,7.00
2023-02-19T18:57:10.234Z,7.00
2023-02-19T18:59:36.723Z,6.75
2023-02-19T19:02:05.170Z,7.00
2023-02-19T19:04:31.697Z,5.50
2023-02-19T19:06:58.176Z,7.40
2023-02-19T19:09:24.668Z,7.00
2023-02-19T19:11:51.162Z,6.00
2023-02-19T19:14:17.661Z,6.20
2023-02-19T19:16:44.500Z,8.00
2023-02-19T19:19:11.485Z,6.00
2023-02-19T19:21:38.117Z,7.80
2023-02-19T19:24:04.755Z,6.00
2023-02-19T19:26:31.200Z,6.00
2023-02-19T19:28:57.721Z,6.40
2023-02-19T19:31:27.330Z,5.00
2023-02-19T19:33:53.889Z,6.00
2023-02-19T19:36:21.749Z,6.67
2023-02-19T19:38:48.314Z,5.00
2023-02-19T19:41:15.829Z,6.00
2023-02-19T19:43:42.364Z,5.40
2023-02-19T19:46:09.967Z,6.00
2023-02-19T19:48:38.895Z,5.00
2023-02-19T19:51:05.626Z,5.00
2023-02-19T19:53:32.196Z,5.00
2023-02-19T19:56:00.337Z,5.00
2023-02-19T19:58:26.807Z,6.00
2023-02-19T20:00:53.572Z,6.00
2023-02-19T20:03:20.698Z,4.00
2023-02-19T20:05:47.914Z,7.00
2023-02-19T20:08:16.804Z,4.40
2023-02-19T20:10:45.377Z,5.20
2023-02-19T20:13:12.267Z,6.00
2023-02-19T20:15:38.713Z,6.00
2023-02-19T20:18:05.330Z,5.00
2023-02-19T20:20:31.812Z,5.00
2023-02-19T20:22:58.272Z,3.50
2023-02-19T20:25:24.887Z,4.20
2023-02-19T20:27:52.543Z,5.00
2023-02-19T20:30:20.950Z,6.00
2023-02-19T20:32:47.417Z,4.00
2023-02-19T20:35:14.052Z,6.00
2023-02-19T20:37:40.736Z,5.00
2023-02-19T20:40:07.915Z,5.00
2023-02-19T20:42:34.445Z,4.60
2023-02-19T20:45:01.565Z,5.50
2023-02-19T20:47:28.238Z,3.25
2023-02-19T20:49:54.763Z,4.25
2023-02-19T20:52:21.831Z,5.00
2023-02-19T20:54:48.315Z,4.00
2023-02-19T20:57:14.980Z,4.00
2023-02-19T20:59:41.471Z,3.40
2023-02-19T21:02:16.526Z,4.00
2023-02-19T21:04:43.929Z,4.50
2023-02-19T21:07:10.411Z,5.00
2023-02-19T21:09:36.942Z,4.60
2023-02-19T21:12:03.538Z,4.40
2023-02-19T21:14:30.016Z,4.00
2023-02-19T21:16:56.555Z,3.40
2023-02-19T21:19:23.262Z,3.75
2023-02-19T21:21:49.746Z,5.00
2023-02-19T21:24:16.259Z,4.00
2023-02-19T21:26:43.488Z,2.60
2023-02-19T21:29:13.554Z,4.00
2023-02-19T21:31:41.197Z,4.00
2023-02-19T21:34:08.518Z,4.00
2023-02-19T21:36:35.411Z,3.00
2023-02-19T21:39:02.218Z,2.00
2023-02-19T21:41:28.994Z,2.80
2023-02-19T21:43:55.789Z,3.00
2023-02-19T21:46:22.570Z,3.00
2023-02-19T21:48:49.607Z,3.00
2023-02-19T21:51:16.328Z,2.40
2023-02-19T21:53:42.821Z,3.00
2023-02-19T21:56:10.275Z,4.00
2023-02-19T21:58:36.872Z,4.00
2023-02-19T22:01:03.585Z,3.25
2023-02-19T22:03:30.042Z,4.00
2023-02-19T22:05:56.461Z,2.00
2023-02-19T22:08:22.924Z,3.00
2023-02-19T22:10:49.419Z,2.40
2023-02-19T22:13:16.092Z,3.00
2023-02-19T22:15:42.606Z,2.00
2023-02-19T22:18:09.086Z,3.00
2023-02-19T22:20:37.355Z,2.60
2023-02-19T22:23:04.005Z,3.80
2023-02-19T22:25:30.424Z,5.00
2023-02-19T22:27:58.424Z,5.00
2023-02-19T22:30:25.962Z,3.00
2023-02-19T22:32:52.604Z,4.00
2023-02-19T22:35:19.089Z,3.40
2023-02-19T22:37:45.581Z,4.00
2023-02-19T22:40:12.270Z,4.60
2023-02-19T22:42:38.718Z,2.60
2023-02-19T22:45:06.029Z,3.75
2023-02-19T22:47:32.566Z,1.00
2023-02-19T22:49:59.080Z,2.00
2023-02-19T22:52:28.119Z,2.00
2023-02-19T22:54:55.176Z,3.00
2023-02-19T22:57:21.757Z,1.50
2023-02-19T22:59:48.220Z,4.60
2023-02-19T23:02:14.729Z,3.60
2023-02-19T23:04:41.164Z,3.00
2023-02-19T23:07:07.713Z,2.00
2023-02-19T23:09:34.600Z,3.00
2023-02-19T23:12:05.872Z,4.00
2023-02-19T23:14:32.430Z,4.00
2023-02-19T23:16:59.041Z,3.50
2023-02-19T23:19:26.125Z,4.00
2023-02-19T23:21:53.162Z,4.00
2023-02-19T23:24:19.629Z,2.40
2023-02-19T23:26:47.805Z,4.00
2023-02-19T23:29:15.566Z,4.20
2023-02-19T23:31:42.348Z,4.00
2023-02-19T23:34:09.036Z,3.00
2023-02-19T23:36:46.037Z,3.80
2023-02-19T23:39:13.648Z,3.25
2023-02-19T23:41:45.866Z,4.00
2023-02-19T23:44:12.339Z,5.20
2023-02-19T23:46:38.787Z,4.60
2023-02-19T23:49:05.268Z,4.25
2023-02-19T23:51:31.755Z,3.60
2023-02-19T23:53:58.204Z,4.00
2023-02-19T23:56:25.373Z,3.00
2023-02-19T23:58:51.905Z,2.40
